FMEP

Details ICAO FMEP (ZSE)
Name ST PIERRE PIERREFONDS
Region Comoros, Mayotte, Réunion and Madagascar
Timezone Unknown (UTC+0.0)
Plans Departing 42
Arriving 29
Stats Elevation 56 ft / 17 m (AMSL)
Location -21.320039° 55.423581°
Runways 1
Magnetic Variation 19.517° W
Sunrise 2018-05-23 02:46:14 UTC / 2018-05-23 02:46:14 Local
Sunset 2018-05-23 13:46:42 UTC / 2018-05-23 13:46:42 Local
Advertisement - Login to hide

Runways

ID Width Length Bearing (true) Bearing (mag) Surface Threshold Offset Overrun Length
15 98 ft / 30 m 6,125 ft / 1,867 m 129.02° 148.54° Asphalt 0 ft / 0 m 0 ft / 0 m
33 98 ft / 30 m 6,125 ft / 1,867 m 309.01° 328.53° Asphalt 0 ft / 0 m 0 ft / 0 m

Map

Weather


0- 5 10 15 20 25 30 35+ Temperature / ° C

Clouds and Precipitation
Forecast for 2018-05-23 12:00 UTC. Updated 2 hours ago

Ground ~20,000 ft ~40,000 ft Winds

METAR

FMEP 231300Z AUTO 12020KT 9999 FEW080 25/18 Q1019 BECMG 12025G35KT

TAF

Not found

Frequencies

Tower 122.40 MHz PIERREFONDS INFO
Warning: Do not use this data for real-world aviation or navigation. No guarantee of current accuracy is given.